createdAt,value
2017-06-08T00:00:21.179Z,15.60
2017-06-08T00:02:49.597Z,15.50
2017-06-08T00:05:18.767Z,15.50
2017-06-08T00:07:47.411Z,15.50
2017-06-08T00:10:15.836Z,15.50
2017-06-08T00:12:44.248Z,15.50
2017-06-08T00:15:13.488Z,15.40
2017-06-08T00:17:41.913Z,15.40
2017-06-08T00:20:11.232Z,15.40
2017-06-08T00:22:39.815Z,15.40
2017-06-08T00:25:08.220Z,15.50
2017-06-08T00:27:36.646Z,15.40
2017-06-08T00:30:05.101Z,15.40
2017-06-08T00:32:33.535Z,15.30
2017-06-08T00:35:01.964Z,15.20
2017-06-08T00:37:30.453Z,15.10
2017-06-08T00:39:58.881Z,15.00
2017-06-08T00:42:27.329Z,14.90
2017-06-08T00:44:56.647Z,15.00
2017-06-08T00:47:25.064Z,14.90
2017-06-08T00:49:53.488Z,15.00
2017-06-08T00:52:22.736Z,14.90
2017-06-08T00:54:51.140Z,14.80
2017-06-08T00:57:19.557Z,14.80
2017-06-08T00:59:49.127Z,14.80
2017-06-08T01:02:17.541Z,14.80
2017-06-08T01:04:46.713Z,14.90
2017-06-08T01:07:15.279Z,14.80
2017-06-08T01:09:43.696Z,14.90
2017-06-08T01:12:12.890Z,14.90
2017-06-08T01:14:41.369Z,14.90
2017-06-08T01:17:09.783Z,14.80
2017-06-08T01:19:38.191Z,14.80
2017-06-08T01:22:07.017Z,14.90
2017-06-08T01:24:36.201Z,15.00
2017-06-08T01:27:05.385Z,15.00
2017-06-08T01:29:33.846Z,15.00
2017-06-08T01:32:01.920Z,15.10
2017-06-08T01:34:30.007Z,15.10
2017-06-08T01:36:58.625Z,15.20
2017-06-08T01:39:27.049Z,15.30
2017-06-08T01:41:55.471Z,15.30
2017-06-08T01:44:24.884Z,15.30
2017-06-08T01:46:53.317Z,15.30
2017-06-08T01:49:21.747Z,15.40
2017-06-08T01:51:50.390Z,15.40
2017-06-08T01:54:18.469Z,15.40
2017-06-08T01:56:47.661Z,15.40
2017-06-08T01:59:16.137Z,15.40
2017-06-08T02:01:44.559Z,15.30
2017-06-08T02:04:12.972Z,15.40
2017-06-08T02:06:41.219Z,15.30
2017-06-08T02:09:09.646Z,15.40
2017-06-08T02:11:38.164Z,15.40
2017-06-08T02:14:06.669Z,15.30
2017-06-08T02:16:35.089Z,15.30
2017-06-08T02:19:03.496Z,15.40
2017-06-08T02:21:32.181Z,15.30
2017-06-08T02:24:00.596Z,15.30
2017-06-08T02:26:29.023Z,15.30
2017-06-08T02:28:58.436Z,15.40
2017-06-08T02:31:27.616Z,15.40
2017-06-08T02:33:56.801Z,15.50
2017-06-08T02:36:25.237Z,15.50
2017-06-08T02:38:53.653Z,15.50
2017-06-08T02:41:22.108Z,15.60
2017-06-08T02:43:50.964Z,15.60
2017-06-08T02:46:19.456Z,15.60
2017-06-08T02:48:47.916Z,15.60
2017-06-08T02:51:17.342Z,15.70
2017-06-08T02:53:47.207Z,15.60
2017-06-08T02:56:15.619Z,15.60
2017-06-08T02:58:44.208Z,15.60
2017-06-08T03:01:12.612Z,15.60
2017-06-08T03:03:41.020Z,15.60
2017-06-08T03:06:09.637Z,15.70
2017-06-08T03:08:38.065Z,15.70
2017-06-08T03:11:06.499Z,15.70
2017-06-08T03:13:34.986Z,15.70
2017-06-08T03:16:03.410Z,15.70
2017-06-08T03:18:31.816Z,15.70
2017-06-08T03:21:01.228Z,15.70
2017-06-08T03:23:30.404Z,15.70
2017-06-08T03:25:58.808Z,15.60
2017-06-08T03:28:27.387Z,15.70
2017-06-08T03:30:55.807Z,15.70
2017-06-08T03:33:24.229Z,15.70
2017-06-08T03:35:53.428Z,15.70
2017-06-08T03:38:22.604Z,15.70
2017-06-08T03:40:51.044Z,15.70
2017-06-08T03:43:19.482Z,15.60
2017-06-08T03:45:47.951Z,15.50
2017-06-08T03:48:16.473Z,15.50
2017-06-08T03:50:45.155Z,15.50
2017-06-08T03:53:13.585Z,15.50
2017-06-08T03:55:42.009Z,15.50
2017-06-08T03:58:10.580Z,15.40
2017-06-08T04:00:39.012Z,15.30
2017-06-08T04:03:07.424Z,15.30
2017-06-08T04:05:36.676Z,15.30
2017-06-08T04:08:05.101Z,15.30
2017-06-08T04:10:34.286Z,15.40
2017-06-08T04:13:02.901Z,15.40
2017-06-08T04:15:31.128Z,15.40
2017-06-08T04:17:59.536Z,15.30
2017-06-08T04:20:28.958Z,15.10
2017-06-08T04:22:57.434Z,15.10
2017-06-08T04:25:25.887Z,15.10
2017-06-08T04:27:54.348Z,15.10
2017-06-08T04:30:22.752Z,15.10
2017-06-08T04:32:51.974Z,15.10
2017-06-08T04:35:20.737Z,15.10
2017-06-08T04:37:49.928Z,15.10
2017-06-08T04:40:18.328Z,15.10
2017-06-08T04:42:46.908Z,15.20
2017-06-08T04:45:16.104Z,15.20
2017-06-08T04:47:45.284Z,15.30
2017-06-08T04:50:14.113Z,15.20
2017-06-08T04:52:42.571Z,15.30
2017-06-08T04:55:11.765Z,15.40
2017-06-08T04:57:40.319Z,15.40
2017-06-08T05:00:08.748Z,15.40
2017-06-08T05:02:37.164Z,15.40
2017-06-08T05:05:05.798Z,15.50
2017-06-08T05:07:34.286Z,15.50
2017-06-08T05:10:02.718Z,15.50
2017-06-08T05:12:31.141Z,15.60
2017-06-08T05:14:59.616Z,15.60
2017-06-08T05:17:28.029Z,15.60
2017-06-08T05:19:56.470Z,15.60
2017-06-08T05:22:24.879Z,15.60
2017-06-08T05:24:53.307Z,15.60
2017-06-08T05:27:22.541Z,15.80
2017-06-08T05:29:50.951Z,15.70
2017-06-08T05:32:20.053Z,15.80
2017-06-08T05:34:48.689Z,15.80
2017-06-08T05:37:17.117Z,15.90
2017-06-08T05:39:45.520Z,15.90
2017-06-08T05:42:14.952Z,15.80
2017-06-08T05:44:43.175Z,15.70
2017-06-08T05:47:11.594Z,15.70
2017-06-08T05:49:40.290Z,15.80
2017-06-08T05:52:08.708Z,16.00
2017-06-08T05:54:37.124Z,16.10
2017-06-08T05:57:06.947Z,16.20
2017-06-08T05:59:35.360Z,16.20
2017-06-08T06:02:03.787Z,16.20
2017-06-08T06:04:33.027Z,16.30
2017-06-08T06:07:01.437Z,16.30
2017-06-08T06:09:29.951Z,16.30
2017-06-08T06:11:59.573Z,16.40
2017-06-08T06:14:28.046Z,16.40
2017-06-08T06:16:56.464Z,16.40
2017-06-08T06:19:25.276Z,16.50
2017-06-08T06:21:53.799Z,16.40
2017-06-08T06:24:22.209Z,16.40
2017-06-08T06:26:50.773Z,16.50
2017-06-08T06:29:19.828Z,16.60
2017-06-08T06:31:48.324Z,16.70
2017-06-08T06:34:17.528Z,16.60
2017-06-08T06:36:45.960Z,16.60
2017-06-08T06:39:14.368Z,16.60
2017-06-08T06:41:43.695Z,16.50
2017-06-08T06:44:12.097Z,16.50
2017-06-08T06:46:40.513Z,16.50
2017-06-08T06:49:09.324Z,16.60
2017-06-08T06:51:37.756Z,16.50
2017-06-08T06:54:06.184Z,16.50
2017-06-08T06:56:34.796Z,16.50
2017-06-08T06:59:03.198Z,16.60
2017-06-08T07:01:31.635Z,16.70
2017-06-08T07:04:00.220Z,16.70
2017-06-08T07:06:28.653Z,16.70
2017-06-08T07:08:57.057Z,16.70
2017-06-08T07:11:26.960Z,16.80
2017-06-08T07:13:55.381Z,16.80
2017-06-08T07:16:23.804Z,16.90
2017-06-08T07:18:52.285Z,16.90
2017-06-08T07:21:20.694Z,17.00
2017-06-08T07:23:49.869Z,17.00
2017-06-08T07:26:18.485Z,17.00
2017-06-08T07:28:46.892Z,17.10
2017-06-08T07:31:15.316Z,17.10
2017-06-08T07:33:44.742Z,17.20
2017-06-08T07:36:13.140Z,17.10
2017-06-08T07:38:41.553Z,17.20
2017-06-08T07:41:10.021Z,17.30
2017-06-08T07:43:38.429Z,17.50
2017-06-08T07:46:07.609Z,17.70
2017-06-08T07:48:36.100Z,17.70
2017-06-08T07:51:04.504Z,17.90
2017-06-08T07:53:32.908Z,18.00
2017-06-08T07:56:01.575Z,18.10
2017-06-08T07:58:29.989Z,18.20
2017-06-08T08:01:09.691Z,18.20
2017-06-08T08:03:38.108Z,18.30
2017-06-08T08:06:06.176Z,18.40
2017-06-08T08:08:34.645Z,18.60
2017-06-08T08:11:03.100Z,18.70
2017-06-08T08:13:31.525Z,18.70
2017-06-08T08:16:00.160Z,18.80
2017-06-08T08:18:28.565Z,19.00
2017-06-08T08:20:56.984Z,19.20
2017-06-08T08:23:25.618Z,19.20
2017-06-08T08:25:54.070Z,19.30
2017-06-08T08:28:24.052Z,19.30
2017-06-08T08:30:52.697Z,19.30
2017-06-08T08:33:21.115Z,19.50
2017-06-08T08:35:49.513Z,19.60
2017-06-08T08:38:19.144Z,19.60
2017-06-08T08:40:47.592Z,19.60
2017-06-08T08:43:16.684Z,19.70
2017-06-08T08:45:45.119Z,19.80
2017-06-08T08:48:13.545Z,19.90
2017-06-08T08:50:41.956Z,19.90
2017-06-08T08:53:10.544Z,20.00
2017-06-08T08:55:38.997Z,20.00
2017-06-08T08:58:08.213Z,20.10
2017-06-08T09:00:36.796Z,20.10
2017-06-08T09:03:05.226Z,20.20
2017-06-08T09:05:33.636Z,20.30
2017-06-08T09:08:02.981Z,20.60
2017-06-08T09:10:31.395Z,20.60
2017-06-08T09:12:59.809Z,20.80
2017-06-08T09:15:28.389Z,20.90
2017-06-08T09:17:57.577Z,21.30
2017-06-08T09:20:26.774Z,21.50
2017-06-08T09:22:56.172Z,21.60
2017-06-08T09:25:25.354Z,21.80
2017-06-08T09:27:53.871Z,21.70
2017-06-08T09:30:22.391Z,21.90
2017-06-08T09:32:50.827Z,22.00
2017-06-08T09:35:19.293Z,22.30
2017-06-08T09:37:48.665Z,23.00
2017-06-08T09:40:17.116Z,23.00
2017-06-08T09:42:45.662Z,23.20
2017-06-08T09:45:15.130Z,23.30
2017-06-08T09:47:43.528Z,23.30
2017-06-08T09:50:12.717Z,23.40
2017-06-08T09:52:41.333Z,23.40
2017-06-08T09:55:09.833Z,23.60
2017-06-08T09:57:38.265Z,23.80
2017-06-08T10:00:07.691Z,23.90
2017-06-08T10:02:36.109Z,23.90
2017-06-08T10:05:04.528Z,24.00
2017-06-08T10:07:33.750Z,24.20
2017-06-08T10:10:02.155Z,24.20
2017-06-08T10:12:30.585Z,24.30
2017-06-08T10:14:59.996Z,24.20
2017-06-08T10:17:29.185Z,24.20
2017-06-08T10:19:58.363Z,24.30
2017-06-08T10:22:26.792Z,24.30
2017-06-08T10:24:55.210Z,24.20
2017-06-08T10:27:23.619Z,23.80
2017-06-08T10:29:52.870Z,23.70
2017-06-08T10:32:21.271Z,23.70
2017-06-08T10:34:49.683Z,23.70
2017-06-08T10:37:18.268Z,23.70
2017-06-08T10:39:47.448Z,23.70
2017-06-08T10:42:16.628Z,23.70
2017-06-08T10:44:45.248Z,23.70
2017-06-08T10:47:13.648Z,23.70
2017-06-08T10:49:42.060Z,23.80
2017-06-08T10:52:10.526Z,23.70
2017-06-08T10:54:38.945Z,23.70
2017-06-08T10:57:08.129Z,23.80
2017-06-08T10:59:36.741Z,23.80
2017-06-08T11:02:05.144Z,24.00
2017-06-08T11:04:33.564Z,24.10
2017-06-08T11:07:02.188Z,24.00
2017-06-08T11:09:30.635Z,23.90
2017-06-08T11:11:59.817Z,23.50
2017-06-08T11:14:28.293Z,23.50
2017-06-08T11:16:56.696Z,23.50
2017-06-08T11:19:25.876Z,23.60
2017-06-08T11:21:54.496Z,23.50
2017-06-08T11:24:22.920Z,23.60
2017-06-08T11:26:51.350Z,23.60
2017-06-08T11:29:20.905Z,23.70
2017-06-08T11:31:49.317Z,23.60
2017-06-08T11:34:18.509Z,23.60
2017-06-08T11:36:46.980Z,23.60
2017-06-08T11:39:15.396Z,23.60
2017-06-08T11:41:43.872Z,23.70
2017-06-08T11:44:12.251Z,23.80
2017-06-08T11:46:40.950Z,24.00
2017-06-08T11:49:09.443Z,23.90
2017-06-08T11:51:38.001Z,23.90
2017-06-08T11:54:06.417Z,24.00
2017-06-08T11:56:34.832Z,23.90
2017-06-08T11:59:04.266Z,23.80
2017-06-08T12:01:32.717Z,23.80
2017-06-08T12:04:02.193Z,23.90
2017-06-08T12:06:30.860Z,23.90
2017-06-08T12:08:59.521Z,23.90
2017-06-08T12:11:28.124Z,23.80
2017-06-08T12:13:56.545Z,23.90
2017-06-08T12:16:26.032Z,24.20
2017-06-08T12:18:54.464Z,24.10
2017-06-08T12:21:26.925Z,24.20
2017-06-08T12:23:55.162Z,24.20
2017-06-08T12:26:23.390Z,24.10
2017-06-08T12:28:52.073Z,24.20
2017-06-08T12:31:20.508Z,24.20
2017-06-08T12:33:49.255Z,24.20
2017-06-08T12:36:18.045Z,24.30
2017-06-08T12:38:46.472Z,24.30
2017-06-08T12:41:15.652Z,24.30
2017-06-08T12:43:44.448Z,24.30
2017-06-08T12:46:13.154Z,24.40
2017-06-08T12:48:42.259Z,24.40
2017-06-08T12:51:10.859Z,24.40
2017-06-08T12:53:39.733Z,24.40
2017-06-08T12:56:08.166Z,24.50
2017-06-08T12:58:37.404Z,24.40
2017-06-08T13:01:06.309Z,24.40
2017-06-08T13:03:34.912Z,24.50
2017-06-08T13:06:03.590Z,24.60
2017-06-08T13:08:32.000Z,24.60
2017-06-08T13:11:00.421Z,24.60
2017-06-08T13:13:29.105Z,24.70
2017-06-08T13:15:57.515Z,24.80
2017-06-08T13:18:25.946Z,24.80
2017-06-08T13:20:55.171Z,24.80
2017-06-08T13:23:23.584Z,24.80
2017-06-08T13:25:52.020Z,24.80
2017-06-08T13:28:20.499Z,24.80
2017-06-08T13:30:48.921Z,24.80
2017-06-08T13:33:17.331Z,24.80
2017-06-08T13:35:47.183Z,24.70
2017-06-08T13:38:15.596Z,24.70
2017-06-08T13:40:44.319Z,24.70
2017-06-08T13:43:13.026Z,24.70
2017-06-08T13:45:41.732Z,24.70
2017-06-08T13:48:10.319Z,24.60
2017-06-08T13:50:38.853Z,24.60
2017-06-08T13:53:07.273Z,24.60
2017-06-08T13:55:35.701Z,24.70
2017-06-08T13:58:05.130Z,24.60
2017-06-08T14:00:33.540Z,24.60
2017-06-08T14:03:01.952Z,24.60
2017-06-08T14:05:31.312Z,24.40
2017-06-08T14:07:59.739Z,24.40
2017-06-08T14:10:28.924Z,24.40
2017-06-08T14:12:57.691Z,24.40
2017-06-08T14:15:26.105Z,24.50
2017-06-08T14:17:54.517Z,24.50
2017-06-08T14:20:23.281Z,24.60
2017-06-08T14:22:51.692Z,24.60
2017-06-08T14:25:20.108Z,24.60
2017-06-08T14:27:48.719Z,24.60
2017-06-08T14:30:17.130Z,24.70
2017-06-08T14:32:45.541Z,24.70
2017-06-08T14:35:14.373Z,24.80
2017-06-08T14:37:42.776Z,24.90
2017-06-08T14:40:11.223Z,24.80
2017-06-08T14:42:39.815Z,24.70
2017-06-08T14:45:08.221Z,24.70
2017-06-08T14:47:36.650Z,24.80
2017-06-08T14:50:06.079Z,24.80
2017-06-08T14:52:34.497Z,24.80
2017-06-08T14:55:02.920Z,24.80
2017-06-08T14:57:32.248Z,24.60
2017-06-08T15:00:00.711Z,24.60
2017-06-08T15:02:28.924Z,24.50
2017-06-08T15:04:57.561Z,24.40
2017-06-08T15:07:26.065Z,24.50
2017-06-08T15:09:54.472Z,24.60
2017-06-08T15:12:23.100Z,24.80
2017-06-08T15:14:51.504Z,24.80
2017-06-08T15:17:19.950Z,24.80
2017-06-08T15:19:48.636Z,24.70
2017-06-08T15:22:17.827Z,24.70
2017-06-08T15:24:46.927Z,24.70
2017-06-08T15:27:15.621Z,24.70
2017-06-08T15:29:44.028Z,24.70
2017-06-08T15:32:12.468Z,24.70
2017-06-08T15:34:41.877Z,24.50
2017-06-08T15:37:10.308Z,24.50
2017-06-08T15:39:38.751Z,24.50
2017-06-08T15:42:07.417Z,24.30
2017-06-08T15:44:36.630Z,24.40
2017-06-08T15:47:05.045Z,24.40
2017-06-08T15:49:33.911Z,24.40
2017-06-08T15:52:02.321Z,24.30
2017-06-08T15:54:30.733Z,24.40
2017-06-08T15:57:00.148Z,24.30
2017-06-08T15:59:28.556Z,24.30
2017-06-08T16:01:57.002Z,24.40
2017-06-08T16:04:26.174Z,24.40
2017-06-08T16:06:54.605Z,24.40
2017-06-08T16:09:23.024Z,24.40
2017-06-08T16:11:51.848Z,24.50
2017-06-08T16:14:20.354Z,24.50
2017-06-08T16:16:48.760Z,24.40
2017-06-08T16:19:17.386Z,24.50
2017-06-08T16:21:45.807Z,24.50
2017-06-08T16:24:14.241Z,24.60
2017-06-08T16:26:43.849Z,24.50
2017-06-08T16:29:12.317Z,24.50
2017-06-08T16:31:41.505Z,24.50
2017-06-08T16:34:10.120Z,24.50
2017-06-08T16:36:38.548Z,24.50
2017-06-08T16:39:06.963Z,24.50
2017-06-08T16:41:36.427Z,24.50
2017-06-08T16:44:04.841Z,24.50
2017-06-08T16:46:34.014Z,24.50
2017-06-08T16:49:02.542Z,24.50
2017-06-08T16:51:33.333Z,24.60
2017-06-08T16:54:01.776Z,24.50
2017-06-08T16:56:30.220Z,24.60
2017-06-08T16:58:58.648Z,24.50
2017-06-08T17:01:27.220Z,24.30
2017-06-08T17:03:55.642Z,24.10
2017-06-08T17:06:24.759Z,24.10
2017-06-08T17:08:53.437Z,24.10
2017-06-08T17:11:21.864Z,24.10
2017-06-08T17:13:50.961Z,24.00
2017-06-08T17:16:19.432Z,24.00
2017-06-08T17:18:47.860Z,24.00
2017-06-08T17:21:17.060Z,24.00
2017-06-08T17:23:46.472Z,24.00
2017-06-08T17:26:14.886Z,24.00
2017-06-08T17:28:43.316Z,24.10
2017-06-08T17:31:12.553Z,24.00
2017-06-08T17:33:40.972Z,24.00
2017-06-08T17:36:09.489Z,24.00
2017-06-08T17:38:38.072Z,24.00
2017-06-08T17:41:07.243Z,24.10
2017-06-08T17:43:36.423Z,24.10
2017-06-08T17:46:05.049Z,24.10
2017-06-08T17:48:33.465Z,24.10
2017-06-08T17:51:01.888Z,24.10
2017-06-08T17:53:31.304Z,24.10
2017-06-08T17:55:59.740Z,24.10
2017-06-08T17:58:28.164Z,24.20
2017-06-08T18:00:56.752Z,24.20
2017-06-08T18:03:25.170Z,24.20
2017-06-08T18:05:53.634Z,24.10
2017-06-08T18:08:22.213Z,24.20
2017-06-08T18:10:50.640Z,24.10
2017-06-08T18:13:19.060Z,24.20
2017-06-08T18:15:47.954Z,24.10
2017-06-08T18:18:16.369Z,24.10
2017-06-08T18:20:44.805Z,24.10
2017-06-08T18:23:13.410Z,24.10
2017-06-08T18:25:41.814Z,24.10
2017-06-08T18:28:10.225Z,24.00
2017-06-08T18:30:39.637Z,24.00
2017-06-08T18:33:08.060Z,24.00
2017-06-08T18:35:36.475Z,24.00
2017-06-08T18:38:05.715Z,24.10
2017-06-08T18:40:34.121Z,24.00
2017-06-08T18:43:02.533Z,24.00
2017-06-08T18:45:32.173Z,24.00
2017-06-08T18:48:00.583Z,24.00
2017-06-08T18:50:29.014Z,24.00
2017-06-08T18:52:57.595Z,23.90
2017-06-08T18:55:26.012Z,24.00
2017-06-08T18:57:54.429Z,23.90
2017-06-08T19:00:23.737Z,23.90
2017-06-08T19:02:52.929Z,23.90
2017-06-08T19:05:22.131Z,23.90
2017-06-08T19:07:51.337Z,23.90
2017-06-08T19:10:20.525Z,23.90
2017-06-08T19:12:49.824Z,23.90
2017-06-08T19:15:19.046Z,23.80
2017-06-08T19:17:47.522Z,23.70
2017-06-08T19:20:15.955Z,23.80
2017-06-08T19:22:45.072Z,23.80
2017-06-08T19:25:14.265Z,23.60
2017-06-08T19:27:43.491Z,23.50
2017-06-08T19:30:11.647Z,23.50
2017-06-08T19:32:40.881Z,23.30
2017-06-08T19:35:09.296Z,23.30
2017-06-08T19:37:37.923Z,23.20
2017-06-08T19:40:10.054Z,23.20
2017-06-08T19:42:39.068Z,23.10
2017-06-08T19:45:12.209Z,23.00
2017-06-08T19:47:40.854Z,23.00
2017-06-08T19:50:10.294Z,23.00
2017-06-08T19:52:38.718Z,22.90
2017-06-08T19:55:08.128Z,22.90
2017-06-08T19:57:36.568Z,22.80
2017-06-08T20:00:05.841Z,22.80
2017-06-08T20:02:34.787Z,22.80
2017-06-08T20:05:03.985Z,22.70
2017-06-08T20:07:33.175Z,22.60
2017-06-08T20:10:02.588Z,22.50
2017-06-08T20:12:31.785Z,22.50
2017-06-08T20:15:00.991Z,22.40
2017-06-08T20:17:30.392Z,22.40
2017-06-08T20:19:58.826Z,22.30
2017-06-08T20:22:27.276Z,22.30
2017-06-08T20:24:55.865Z,22.30
2017-06-08T20:27:24.348Z,22.30
2017-06-08T20:29:52.805Z,22.30
2017-06-08T20:32:21.481Z,22.30
2017-06-08T20:34:49.870Z,22.20
2017-06-08T20:37:18.320Z,22.10
2017-06-08T20:39:47.946Z,22.00
2017-06-08T20:42:17.177Z,22.00
2017-06-08T20:44:45.592Z,22.00
2017-06-08T20:47:14.217Z,21.90
2017-06-08T20:49:42.636Z,21.90
2017-06-08T20:52:11.082Z,21.90
2017-06-08T20:54:39.753Z,21.90
2017-06-08T20:57:08.182Z,21.90
2017-06-08T20:59:36.641Z,22.00
2017-06-08T21:02:05.174Z,22.00
2017-06-08T21:04:34.401Z,21.90
2017-06-08T21:07:02.836Z,21.90
2017-06-08T21:09:31.616Z,21.90
2017-06-08T21:12:00.831Z,21.90
2017-06-08T21:14:29.941Z,21.90
2017-06-08T21:16:58.454Z,21.90
2017-06-08T21:19:26.907Z,21.90
2017-06-08T21:21:55.383Z,21.90
2017-06-08T21:24:24.079Z,21.80
2017-06-08T21:26:52.551Z,21.80
2017-06-08T21:29:20.984Z,21.80
2017-06-08T21:31:49.546Z,21.70
2017-06-08T21:34:18.044Z,21.60
2017-06-08T21:36:47.164Z,21.60
2017-06-08T21:39:15.923Z,21.50
2017-06-08T21:41:44.342Z,21.50
2017-06-08T21:44:13.584Z,21.50
2017-06-08T21:46:42.140Z,21.50
2017-06-08T21:49:10.579Z,21.50
2017-06-08T21:51:39.676Z,21.50
2017-06-08T21:54:08.486Z,21.40
2017-06-08T21:56:36.902Z,21.40
2017-06-08T22:01:40.275Z,21.20
2017-06-08T22:04:09.460Z,21.20
2017-06-08T22:06:38.648Z,21.20
2017-06-08T22:09:07.084Z,21.10
2017-06-08T22:11:35.500Z,21.20
2017-06-08T22:14:04.113Z,21.20
2017-06-08T22:16:32.549Z,21.10
2017-06-08T22:19:01.695Z,21.00
2017-06-08T22:21:30.254Z,20.90
2017-06-08T22:23:59.451Z,20.80
2017-06-08T22:26:28.063Z,20.80
2017-06-08T22:28:56.504Z,20.80
2017-06-08T22:31:24.905Z,20.80
2017-06-08T22:33:53.333Z,20.80
2017-06-08T22:36:21.749Z,20.60
2017-06-08T22:38:51.176Z,20.50
2017-06-08T22:41:19.596Z,20.50
2017-06-08T22:43:48.015Z,20.40
2017-06-08T22:46:17.218Z,20.40
2017-06-08T22:48:45.651Z,20.40
2017-06-08T22:51:14.176Z,20.40
2017-06-08T22:53:43.383Z,20.30
2017-06-08T22:56:12.557Z,20.30
2017-06-08T22:58:41.753Z,20.30
2017-06-08T23:01:10.954Z,20.20
2017-06-08T23:03:40.200Z,20.20
2017-06-08T23:06:08.608Z,20.10
2017-06-08T23:08:37.020Z,20.10
2017-06-08T23:11:05.473Z,20.00
2017-06-08T23:13:33.883Z,20.00
2017-06-08T23:16:02.569Z,20.00
2017-06-08T23:18:31.000Z,19.90
2017-06-08T23:20:59.564Z,19.90
2017-06-08T23:23:28.019Z,19.80
2017-06-08T23:25:56.487Z,19.80
2017-06-08T23:28:25.346Z,19.80
2017-06-08T23:30:53.757Z,19.70
2017-06-08T23:33:22.192Z,19.60
2017-06-08T23:35:50.631Z,19.50
2017-06-08T23:38:20.489Z,19.40
2017-06-08T23:40:49.112Z,19.30
2017-06-08T23:43:17.553Z,19.30
2017-06-08T23:45:45.968Z,19.30
2017-06-08T23:48:14.401Z,19.20
2017-06-08T23:50:42.819Z,19.20
2017-06-08T23:53:12.162Z,19.10
2017-06-08T23:55:40.578Z,19.10
2017-06-08T23:58:08.992Z,19.10
